Time;durP1;ratioP1;P1;durP2;ratioP2;P2;SDS_P1;SDS_P2;PMS_P1;PMS_P2;Temp;Humidity;BMP_temperature;BMP_pressure;BME280_temperature;BME280_humidity;BME280_pressure;Samples;Min_cycle;Max_cycle;Signal;HPM_P1;HPM_P2
2022/11/13 00:00:07;;;;;;;23.92;14.32;;;20.30;99.90;;;;;;5033499;28;20197;-79
2022/11/13 00:02:38;;;;;;;23.30;14.13;;;20.30;99.90;;;;;;5032431;28;20582;-81
2022/11/13 00:05:10;;;;;;;24.50;14.95;;;20.30;99.90;;;;;;5027776;28;20560;-81
2022/11/13 00:07:40;;;;;;;21.17;14.70;;;20.30;99.90;;;;;;5032067;28;20560;-81
2022/11/13 00:10:12;;;;;;;24.20;15.07;;;20.30;99.90;;;;;;5028987;28;20186;-79
2022/11/13 00:12:44;;;;;;;25.30;15.45;;;20.30;99.90;;;;;;5029142;28;20207;-79
2022/11/13 00:15:18;;;;;;;23.92;14.95;;;20.30;99.90;;;;;;5028228;28;20194;-81
2022/11/13 00:17:49;;;;;;;24.35;16.05;;;20.30;99.90;;;;;;5032913;28;20196;-80
2022/11/13 00:20:20;;;;;;;26.50;16.58;;;20.40;99.90;;;;;;5032917;28;20896;-82
2022/11/13 00:22:50;;;;;;;33.67;17.67;;;20.40;99.90;;;;;;5034232;28;20554;-81
2022/11/13 00:25:21;;;;;;;27.52;16.85;;;20.50;99.90;;;;;;5032766;28;20511;-82
2022/11/13 00:27:54;;;;;;;27.27;16.40;;;20.50;99.90;;;;;;5030943;28;20198;-81
2022/11/13 00:30:25;;;;;;;29.45;17.42;;;20.60;99.90;;;;;;5034971;28;20198;-81
2022/11/13 00:32:55;;;;;;;27.73;17.48;;;20.70;99.90;;;;;;5020332;28;20195;-83
2022/11/13 00:35:26;;;;;;;29.30;16.38;;;20.70;99.90;;;;;;5033817;28;20230;-81
2022/11/13 00:37:58;;;;;;;28.67;16.95;;;20.70;99.90;;;;;;5031538;28;20592;-81
2022/11/13 00:40:28;;;;;;;28.98;16.77;;;20.80;99.90;;;;;;5034639;28;20190;-82
2022/11/13 00:43:01;;;;;;;24.65;16.10;;;20.90;99.90;;;;;;5034126;28;20220;-81
2022/11/13 00:45:32;;;;;;;28.88;17.58;;;20.90;99.90;;;;;;5034052;28;20233;-80
2022/11/13 00:48:03;;;;;;;22.33;15.18;;;20.90;99.90;;;;;;5033198;28;20199;-81
2022/11/13 00:50:34;;;;;;;27.70;16.83;;;21.00;99.90;;;;;;5031099;28;20199;-81
2022/11/13 00:53:05;;;;;;;24.70;15.55;;;21.00;99.90;;;;;;5033129;28;20229;-81
2022/11/13 00:55:35;;;;;;;24.35;15.23;;;21.00;99.90;;;;;;5029284;28;20200;-81
2022/11/13 00:58:08;;;;;;;23.30;14.93;;;21.00;99.90;;;;;;5031035;28;20194;-81
2022/11/13 01:00:39;;;;;;;24.58;14.68;;;21.00;99.90;;;;;;5031952;28;20194;-82
2022/11/13 01:03:10;;;;;;;24.02;15.27;;;21.00;99.90;;;;;;5031086;28;20585;-81
2022/11/13 01:05:42;;;;;;;23.60;14.02;;;21.00;99.90;;;;;;5031217;28;20190;-81
2022/11/13 01:08:13;;;;;;;20.98;14.02;;;21.10;99.90;;;;;;5027323;28;20197;-80
2022/11/13 01:10:46;;;;;;;21.45;14.10;;;21.20;99.90;;;;;;5030203;28;20198;-80
2022/11/13 01:13:18;;;;;;;20.80;13.90;;;21.20;99.90;;;;;;5037158;28;20269;-83
2022/11/13 01:15:49;;;;;;;18.48;13.63;;;21.20;99.90;;;;;;5029833;28;20194;-82
2022/11/13 01:18:20;;;;;;;20.20;13.57;;;21.20;99.90;;;;;;5029583;28;20561;-81
2022/11/13 01:20:51;;;;;;;22.30;14.07;;;21.20;99.90;;;;;;5029240;28;20205;-82
2022/11/13 01:23:22;;;;;;;24.10;14.55;;;21.20;99.90;;;;;;5032185;28;20214;-82
2022/11/13 01:25:52;;;;;;;22.20;14.98;;;21.30;99.90;;;;;;5032678;28;20661;-81
2022/11/13 01:28:25;;;;;;;21.02;13.63;;;21.30;99.90;;;;;;5030491;28;20212;-82
2022/11/13 01:30:56;;;;;;;21.35;14.32;;;21.40;99.90;;;;;;5034614;28;20217;-80
2022/11/13 01:33:27;;;;;;;20.13;13.52;;;21.40;99.90;;;;;;5027035;28;20251;-80
2022/11/13 01:36:03;;;;;;;17.08;11.88;;;21.50;99.90;;;;;;5034370;28;20213;-80
2022/11/13 01:38:34;;;;;;;14.50;10.70;;;21.70;99.90;;;;;;5029031;28;20200;-82
2022/11/13 01:41:05;;;;;;;14.70;10.57;;;21.80;99.90;;;;;;5034622;28;20183;-81
2022/11/13 01:43:40;;;;;;;12.82;9.20;;;22.00;99.90;;;;;;5026555;28;20735;-80
2022/11/13 01:46:18;;;;;;;13.25;9.23;;;22.30;99.90;;;;;;5024074;28;20198;-83
2022/11/13 01:48:52;;;;;;;11.10;8.02;;;22.60;99.90;;;;;;5033347;28;20213;-80
2022/11/13 01:51:29;;;;;;;11.73;7.72;;;22.70;99.90;;;;;;5026082;28;20185;-80
2022/11/13 01:54:01;;;;;;;11.07;7.55;;;22.70;99.90;;;;;;5028433;28;20268;-81
2022/11/13 01:56:32;;;;;;;10.23;7.15;;;22.80;99.90;;;;;;5034251;28;20634;-80
2022/11/13 01:59:10;;;;;;;12.45;7.43;;;22.80;99.90;;;;;;5034831;28;20673;-80
2022/11/13 02:01:41;;;;;;;8.38;6.90;;;22.90;99.90;;;;;;5025886;28;20195;-81
2022/11/13 02:04:12;;;;;;;10.65;6.85;;;22.90;99.90;;;;;;5026068;28;20186;-80
2022/11/13 02:06:47;;;;;;;12.07;6.53;;;23.10;99.90;;;;;;5032553;28;20195;-78
2022/11/13 02:09:19;;;;;;;9.95;6.85;;;23.20;99.90;;;;;;5028352;28;20229;-79
2022/11/13 02:11:50;;;;;;;9.93;6.47;;;23.40;99.90;;;;;;5024366;28;20191;-81
2022/11/13 02:14:26;;;;;;;6.53;5.20;;;23.70;99.90;;;;;;5025673;28;20198;-83
2022/11/13 02:17:00;;;;;;;6.45;5.05;;;24.00;99.90;;;;;;5033814;28;20189;-82
2022/11/13 02:19:35;;;;;;;7.45;4.72;;;24.00;99.90;;;;;;5025897;28;20198;-82
2022/11/13 02:22:12;;;;;;;5.70;4.60;;;24.10;99.90;;;;;;5033928;28;20205;-84
2022/11/13 02:24:47;;;;;;;6.25;4.80;;;24.30;99.90;;;;;;5025834;28;20668;-85
2022/11/13 02:27:27;;;;;;;7.38;5.10;;;24.50;99.90;;;;;;5025729;28;20204;-82
2022/11/13 02:29:58;;;;;;;4.68;4.05;;;24.60;99.90;;;;;;5027865;28;20191;-81
2022/11/13 02:32:28;;;;;;;6.95;4.45;;;24.40;99.90;;;;;;5025732;28;20203;-80
2022/11/13 02:34:59;;;;;;;5.18;4.43;;;24.30;99.90;;;;;;5033224;28;20186;-80
2022/11/13 02:37:30;;;;;;;5.43;3.90;;;24.30;99.90;;;;;;5030262;28;20592;-79
2022/11/13 02:40:03;;;;;;;4.90;3.63;;;24.10;99.90;;;;;;5033260;28;20191;-81
2022/11/13 02:42:34;;;;;;;5.32;3.53;;;24.10;99.90;;;;;;5033214;28;20205;-84
2022/11/13 02:45:05;;;;;;;5.95;3.70;;;24.10;99.90;;;;;;5025990;28;20187;-83
2022/11/13 02:47:36;;;;;;;4.28;3.42;;;24.40;99.90;;;;;;5032880;28;20187;-84
2022/11/13 02:50:09;;;;;;;4.68;3.20;;;24.60;99.90;;;;;;5032985;28;20264;-82
2022/11/13 02:52:40;;;;;;;3.42;3.13;;;24.80;99.90;;;;;;5029963;28;20202;-81
2022/11/13 02:55:13;;;;;;;5.05;3.22;;;24.90;99.90;;;;;;5023968;28;20202;-82
2022/11/13 02:57:44;;;;;;;4.95;3.20;;;25.00;99.90;;;;;;5030373;28;20195;-82
2022/11/13 03:00:15;;;;;;;6.82;3.20;;;25.00;99.90;;;;;;5022157;28;20560;-80
2022/11/13 03:02:46;;;;;;;4.82;3.40;;;25.10;99.90;;;;;;5031674;28;20216;-79
2022/11/13 03:05:17;;;;;;;5.65;3.88;;;25.20;99.90;;;;;;5032818;28;20190;-78
2022/11/13 03:07:48;;;;;;;5.18;3.78;;;25.20;99.90;;;;;;5024634;28;20572;-78
2022/11/13 03:10:20;;;;;;;4.30;3.42;;;25.20;99.90;;;;;;5021501;28;20201;-79
2022/11/13 03:12:51;;;;;;;4.30;3.22;;;25.20;99.90;;;;;;5022857;28;20195;-78
2022/11/13 03:15:22;;;;;;;6.20;3.63;;;25.20;99.90;;;;;;5033453;28;20198;-83
2022/11/13 03:17:53;;;;;;;4.57;3.55;;;25.20;99.90;;;;;;5029431;28;20559;-81
2022/11/13 03:20:24;;;;;;;4.75;3.42;;;25.30;99.90;;;;;;5027737;28;20194;-83
2022/11/13 03:22:54;;;;;;;6.05;3.55;;;25.30;99.90;;;;;;5032222;28;20692;-80
2022/11/13 03:25:27;;;;;;;5.25;3.58;;;25.40;99.90;;;;;;5032602;28;20198;-80
2022/11/13 03:27:58;;;;;;;4.28;3.22;;;25.40;99.90;;;;;;5030939;28;20190;-82
2022/11/13 03:30:29;;;;;;;4.25;3.30;;;25.40;99.90;;;;;;5031722;28;20194;-77
2022/11/13 03:33:00;;;;;;;4.07;2.97;;;25.40;99.90;;;;;;5032523;28;20190;-80
2022/11/13 03:35:32;;;;;;;3.97;2.88;;;25.40;99.90;;;;;;5032302;28;20592;-79
2022/11/13 03:38:02;;;;;;;3.75;2.83;;;25.40;99.90;;;;;;5024864;28;20271;-77
2022/11/13 03:40:38;;;;;;;2.90;2.60;;;25.50;99.90;;;;;;5020371;28;20703;-79
2022/11/13 03:43:08;;;;;;;3.83;2.88;;;25.50;99.90;;;;;;5031057;28;20320;-79
2022/11/13 03:45:39;;;;;;;3.47;2.72;;;25.60;99.90;;;;;;5025322;28;20271;-79
2022/11/13 03:48:10;;;;;;;4.03;3.25;;;25.70;99.90;;;;;;5024228;28;20578;-78
2022/11/13 03:50:41;;;;;;;4.22;3.17;;;25.70;99.90;;;;;;5026284;28;20736;-80
2022/11/13 03:53:12;;;;;;;4.07;3.10;;;25.70;99.90;;;;;;5033036;28;20196;-79
2022/11/13 03:55:49;;;;;;;5.50;3.20;;;25.70;99.90;;;;;;5024341;28;20685;-81
2022/11/13 03:58:19;;;;;;;5.20;3.10;;;25.60;99.90;;;;;;5024548;28;20194;-81
2022/11/13 04:00:50;;;;;;;3.65;3.00;;;25.50;99.90;;;;;;5025094;28;20188;-79
2022/11/13 04:03:21;;;;;;;5.30;3.50;;;25.50;99.90;;;;;;5025086;28;20219;-78
2022/11/13 04:05:52;;;;;;;4.68;3.58;;;25.50;99.90;;;;;;5032311;28;20187;-78
2022/11/13 04:08:23;;;;;;;4.65;3.47;;;25.60;99.90;;;;;;5032306;28;20213;-78
2022/11/13 04:10:56;;;;;;;5.47;3.40;;;25.50;99.90;;;;;;5029671;28;20198;-80
2022/11/13 04:13:27;;;;;;;5.20;3.83;;;25.40;99.90;;;;;;5029990;28;20614;-78
2022/11/13 04:15:57;;;;;;;4.30;3.25;;;25.30;99.90;;;;;;5032232;28;20237;-83
2022/11/13 04:18:28;;;;;;;5.93;3.70;;;25.20;99.90;;;;;;5032565;28;20190;-77
2022/11/13 04:21:02;;;;;;;3.95;3.15;;;25.20;99.90;;;;;;5032213;28;20195;-78
2022/11/13 04:23:33;;;;;;;4.25;3.25;;;25.10;99.90;;;;;;5029442;28;20218;-79
2022/11/13 04:26:06;;;;;;;3.42;3.05;;;25.00;99.90;;;;;;5023929;28;20217;-80
2022/11/13 04:28:37;;;;;;;3.75;2.85;;;25.00;99.90;;;;;;5032492;28;20195;-78
2022/11/13 04:31:08;;;;;;;5.63;3.10;;;24.90;99.90;;;;;;5035564;28;20564;-80
2022/11/13 04:33:38;;;;;;;2.85;2.55;;;24.90;99.90;;;;;;5035890;28;20206;-80
2022/11/13 04:36:10;;;;;;;5.50;2.85;;;24.90;99.90;;;;;;5034951;28;20225;-79
2022/11/13 04:38:40;;;;;;;3.90;2.83;;;24.90;99.90;;;;;;5036023;28;20564;-84
2022/11/13 04:44:02;;;;;;;3.80;2.42;;;25.00;99.90;;;;;;5027371;28;20708;-80
2022/11/13 04:46:33;;;;;;;3.83;2.30;;;25.00;99.90;;;;;;5027925;28;20190;-81
2022/11/13 04:49:03;;;;;;;2.55;2.05;;;25.10;99.90;;;;;;5034901;28;20551;-79
2022/11/13 04:51:34;;;;;;;3.00;1.88;;;25.20;99.90;;;;;;5024346;28;20195;-81
2022/11/13 04:54:05;;;;;;;2.92;2.10;;;25.20;99.90;;;;;;5033002;28;20630;-80
2022/11/13 04:56:38;;;;;;;2.63;1.80;;;25.10;99.90;;;;;;5034339;28;20186;-79
2022/11/13 04:59:09;;;;;;;2.33;1.80;;;25.20;99.90;;;;;;5032585;28;20684;-80
2022/11/13 05:01:39;;;;;;;3.75;1.58;;;25.10;99.90;;;;;;5026983;28;20208;-80
2022/11/13 05:04:12;;;;;;;3.53;1.67;;;25.10;99.90;;;;;;5026897;28;20246;-80
2022/11/13 05:06:43;;;;;;;2.22;1.50;;;25.10;99.90;;;;;;5029887;28;20191;-78
2022/11/13 05:09:15;;;;;;;1.85;1.48;;;25.00;99.90;;;;;;5031542;28;20273;-81
2022/11/13 05:11:47;;;;;;;1.63;1.33;;;25.00;99.90;;;;;;5029655;28;20186;-79
2022/11/13 05:14:18;;;;;;;1.60;1.25;;;25.00;99.90;;;;;;5034477;28;20733;-81
2022/11/13 05:16:50;;;;;;;2.45;1.40;;;25.00;99.90;;;;;;5032922;28;20198;-80
2022/11/13 05:19:21;;;;;;;1.60;0.95;;;25.00;99.90;;;;;;5033316;28;20252;-83
2022/11/13 05:21:52;;;;;;;1.25;1.15;;;24.90;99.90;;;;;;5035027;28;20550;-81
2022/11/13 05:24:22;;;;;;;1.65;1.20;;;24.80;99.90;;;;;;5034174;28;20313;-81
2022/11/13 05:26:55;;;;;;;2.05;1.20;;;24.80;99.90;;;;;;5029838;28;20191;-81
2022/11/13 05:29:26;;;;;;;3.80;1.20;;;24.80;99.90;;;;;;5032966;28;20195;-83
2022/11/13 05:31:57;;;;;;;1.27;1.17;;;24.80;99.90;;;;;;5034883;28;20269;-82
2022/11/13 05:34:28;;;;;;;2.15;1.33;;;24.80;99.90;;;;;;5034824;28;20314;-81
2022/11/13 05:36:59;;;;;;;1.40;1.30;;;24.80;99.90;;;;;;5033647;28;20230;-83
2022/11/13 05:39:29;;;;;;;1.70;1.30;;;24.80;99.90;;;;;;5034453;28;20667;-80
2022/11/13 05:42:02;;;;;;;2.45;1.30;;;24.70;99.90;;;;;;5034783;28;20193;-81
2022/11/13 05:44:33;;;;;;;1.90;1.40;;;24.70;99.90;;;;;;5034069;28;20645;-80
2022/11/13 05:47:04;;;;;;;2.15;1.33;;;24.70;99.90;;;;;;5028375;28;20263;-80
2022/11/13 05:49:34;;;;;;;2.50;1.40;;;24.70;99.90;;;;;;5030444;28;20198;-79
2022/11/13 05:52:05;;;;;;;2.08;1.40;;;24.80;99.90;;;;;;5034478;28;20182;-81
2022/11/13 05:54:36;;;;;;;2.63;1.50;;;24.80;99.90;;;;;;5026125;28;20221;-80
2022/11/13 05:57:09;;;;;;;1.95;1.40;;;24.70;99.90;;;;;;5029448;28;20187;-78
2022/11/13 05:59:40;;;;;;;2.58;1.42;;;24.70;99.90;;;;;;5032307;28;20240;-79
2022/11/13 06:02:11;;;;;;;1.38;1.27;;;24.70;99.90;;;;;;5029735;28;20198;-85
2022/11/13 06:04:42;;;;;;;2.83;1.52;;;24.70;99.90;;;;;;5030999;28;20218;-79
2022/11/13 06:07:13;;;;;;;2.10;1.42;;;24.60;99.90;;;;;;5025877;28;20205;-79
2022/11/13 06:09:44;;;;;;;3.28;1.40;;;24.60;99.90;;;;;;5033464;28;20202;-79
2022/11/13 06:12:16;;;;;;;1.98;1.40;;;24.60;99.90;;;;;;5029457;28;20639;-83
2022/11/13 06:14:47;;;;;;;3.20;1.50;;;24.60;99.90;;;;;;5031740;28;20233;-79
2022/11/13 06:17:18;;;;;;;1.92;1.20;;;24.60;99.90;;;;;;5027670;28;20731;-78
2022/11/13 06:19:49;;;;;;;1.35;1.20;;;24.60;99.90;;;;;;5029408;28;20214;-79
2022/11/13 06:22:19;;;;;;;2.20;1.25;;;24.60;99.90;;;;;;5031817;28;20257;-80
2022/11/13 06:24:50;;;;;;;2.63;1.30;;;24.70;99.90;;;;;;5024492;28;20221;-84
2022/11/13 06:27:23;;;;;;;2.85;1.30;;;24.70;99.90;;;;;;5027405;28;20685;-85
2022/11/13 06:29:54;;;;;;;2.65;1.27;;;24.70;99.90;;;;;;5033125;28;20221;-78
2022/11/13 06:32:24;;;;;;;2.30;1.20;;;24.60;99.90;;;;;;5031720;28;20203;-79
2022/11/13 06:34:55;;;;;;;1.95;1.40;;;24.60;99.90;;;;;;5031781;28;20309;-79
2022/11/13 06:37:26;;;;;;;1.77;1.17;;;24.60;99.90;;;;;;5026776;28;20261;-80
2022/11/13 06:39:57;;;;;;;2.58;1.20;;;24.50;99.90;;;;;;5031621;28;20672;-79
2022/11/13 06:42:30;;;;;;;1.02;1.00;;;24.60;99.90;;;;;;5027587;28;20194;-81
2022/11/13 06:45:01;;;;;;;2.97;1.30;;;24.50;99.90;;;;;;5030511;28;20236;-80
2022/11/13 06:47:32;;;;;;;1.73;1.08;;;24.50;99.90;;;;;;5030636;28;20622;-84
2022/11/13 06:50:02;;;;;;;1.55;1.23;;;24.40;99.90;;;;;;5030617;28;20296;-80
2022/11/13 06:52:33;;;;;;;1.77;1.10;;;24.40;99.90;;;;;;5032071;28;20190;-84
2022/11/13 06:55:04;;;;;;;2.03;1.20;;;24.40;99.90;;;;;;5028094;28;20205;-80
2022/11/13 06:57:37;;;;;;;4.53;1.40;;;24.30;99.90;;;;;;5031494;28;20195;-80
2022/11/13 07:00:08;;;;;;;2.03;1.33;;;24.30;99.90;;;;;;5030870;28;20285;-83
2022/11/13 07:02:39;;;;;;;1.85;1.17;;;24.30;99.90;;;;;;5026246;28;20191;-81
2022/11/13 07:05:10;;;;;;;2.58;1.40;;;24.20;99.90;;;;;;5026698;28;20217;-86
2022/11/13 07:07:41;;;;;;;1.77;1.25;;;24.20;99.90;;;;;;5023336;28;20198;-78
2022/11/13 07:10:12;;;;;;;2.72;1.40;;;24.20;99.90;;;;;;5024663;28;20187;-81
2022/11/13 07:12:45;;;;;;;2.22;1.40;;;24.10;99.90;;;;;;5029375;28;20213;-79
2022/11/13 07:15:15;;;;;;;3.10;1.33;;;24.10;99.90;;;;;;5027827;28;20867;-82
2022/11/13 07:17:46;;;;;;;3.13;1.38;;;24.10;99.90;;;;;;5028043;28;20674;-82
2022/11/13 07:20:17;;;;;;;1.65;1.52;;;24.00;99.90;;;;;;5029380;28;20198;-80
2022/11/13 07:22:48;;;;;;;3.08;1.52;;;24.00;99.90;;;;;;5029099;28;20286;-80
2022/11/13 07:25:19;;;;;;;1.65;1.38;;;24.00;99.90;;;;;;5027235;28;20244;-82
2022/11/13 07:27:52;;;;;;;1.63;1.30;;;23.90;99.90;;;;;;5030389;28;20194;-80
2022/11/13 07:30:23;;;;;;;2.10;1.60;;;23.90;99.90;;;;;;5028673;28;20213;-83
2022/11/13 07:32:54;;;;;;;1.90;1.30;;;23.80;99.90;;;;;;5032413;28;20273;-80
2022/11/13 07:35:25;;;;;;;1.92;1.23;;;23.80;99.90;;;;;;5031734;28;20704;-80
2022/11/13 07:37:59;;;;;;;2.20;1.40;;;23.80;99.90;;;;;;5030365;28;20241;-83
2022/11/13 07:40:30;;;;;;;2.28;1.60;;;23.80;99.90;;;;;;5031048;28;20634;-84
2022/11/13 07:43:04;;;;;;;2.28;1.38;;;23.80;99.90;;;;;;5031891;28;20552;-79
2022/11/13 07:45:35;;;;;;;2.08;1.67;;;23.70;99.90;;;;;;5023921;28;20214;-80
2022/11/13 07:48:06;;;;;;;2.95;1.60;;;23.70;99.90;;;;;;5031201;28;20197;-83
2022/11/13 07:50:38;;;;;;;3.15;1.40;;;23.70;99.90;;;;;;5025486;28;20195;-88
2022/11/13 07:53:10;;;;;;;1.77;1.33;;;23.70;99.90;;;;;;5029354;28;20699;-85
2022/11/13 07:55:41;;;;;;;1.98;1.55;;;23.70;99.90;;;;;;5028984;28;20197;-85
2022/11/13 07:58:13;;;;;;;2.80;1.45;;;23.60;99.90;;;;;;5026274;28;20189;-81
2022/11/13 08:00:44;;;;;;;2.22;1.40;;;23.60;99.90;;;;;;5029429;28;20564;-83
2022/11/13 08:03:17;;;;;;;2.38;1.60;;;23.60;99.90;;;;;;5026504;28;20198;-81
2022/11/13 08:05:48;;;;;;;1.88;1.48;;;23.60;99.90;;;;;;5031613;28;20711;-82
2022/11/13 08:08:18;;;;;;;2.40;1.60;;;23.60;99.90;;;;;;5031600;28;20289;-83
2022/11/13 08:10:52;;;;;;;2.78;1.40;;;23.60;99.90;;;;;;5034333;28;20194;-81
2022/11/13 08:13:25;;;;;;;1.65;1.50;;;23.50;99.90;;;;;;5035157;28;20198;-82
2022/11/13 08:15:55;;;;;;;2.22;1.65;;;23.60;99.90;;;;;;5034906;28;20667;-83
2022/11/13 08:18:26;;;;;;;4.38;1.80;;;23.50;99.90;;;;;;5029205;28;20201;-82
2022/11/13 08:20:57;;;;;;;1.83;1.50;;;23.60;99.90;;;;;;5030395;28;20273;-83
2022/11/13 08:23:28;;;;;;;3.45;1.67;;;23.50;99.90;;;;;;5023305;28;20194;-81
2022/11/13 08:25:59;;;;;;;2.58;1.75;;;23.50;99.90;;;;;;5033796;28;20214;-81
2022/11/13 08:28:32;;;;;;;2.28;1.75;;;23.50;99.90;;;;;;5030653;28;20190;-82
2022/11/13 08:31:04;;;;;;;1.70;1.60;;;23.40;99.90;;;;;;5032734;28;20662;-82
2022/11/13 08:33:35;;;;;;;2.53;1.58;;;23.40;99.90;;;;;;5034626;28;20229;-82
2022/11/13 08:36:06;;;;;;;2.75;1.60;;;23.40;99.90;;;;;;5033734;28;20300;-80
2022/11/13 08:38:38;;;;;;;1.98;1.60;;;23.30;99.90;;;;;;5024727;28;20563;-81
2022/11/13 08:41:09;;;;;;;2.15;1.75;;;23.30;99.90;;;;;;5032325;28;20190;-82
2022/11/13 08:43:42;;;;;;;2.42;1.50;;;23.20;99.90;;;;;;5030777;28;20201;-82
2022/11/13 08:46:12;;;;;;;2.05;1.83;;;23.20;99.90;;;;;;5030804;28;20289;-80
2022/11/13 08:48:43;;;;;;;3.72;1.90;;;23.10;99.90;;;;;;5031519;28;20198;-81
2022/11/13 08:51:14;;;;;;;1.80;1.55;;;23.00;99.90;;;;;;5034846;28;20191;-79
2022/11/13 08:53:45;;;;;;;2.35;1.67;;;22.90;99.90;;;;;;5029577;28;20248;-81
2022/11/13 08:56:15;;;;;;;3.60;2.10;;;22.80;99.90;;;;;;5027901;28;20197;-80
2022/11/13 08:58:48;;;;;;;3.97;1.90;;;22.80;99.90;;;;;;5033238;28;20194;-81
2022/11/13 09:01:22;;;;;;;3.45;2.20;;;22.70;99.90;;;;;;5033181;28;20209;-81
2022/11/13 09:03:53;;;;;;;2.70;2.10;;;22.60;99.90;;;;;;5030815;28;20563;-81
2022/11/13 09:06:24;;;;;;;2.30;2.10;;;22.60;99.90;;;;;;5030408;28;20289;-81
2022/11/13 09:08:55;;;;;;;2.80;1.80;;;22.50;99.90;;;;;;5027930;28;20292;-81
2022/11/13 09:11:26;;;;;;;2.80;1.90;;;22.50;99.90;;;;;;5028380;28;20217;-81
2022/11/13 09:13:59;;;;;;;5.28;1.65;;;22.40;99.90;;;;;;5030302;28;20194;-81
2022/11/13 09:16:30;;;;;;;4.72;1.80;;;22.30;99.90;;;;;;5032761;28;20217;-80
2022/11/13 09:19:01;;;;;;;2.35;2.10;;;22.30;99.90;;;;;;5033794;28;20557;-79
2022/11/13 09:21:32;;;;;;;2.65;2.13;;;22.30;99.90;;;;;;5033383;28;20202;-80
2022/11/13 09:24:03;;;;;;;3.90;2.13;;;22.20;99.90;;;;;;5030217;28;20193;-81
2022/11/13 09:26:33;;;;;;;6.35;2.10;;;22.20;99.90;;;;;;5032434;28;20625;-80
2022/11/13 09:29:06;;;;;;;2.95;1.98;;;22.20;99.90;;;;;;5030051;28;20186;-81
2022/11/13 09:31:39;;;;;;;3.92;2.30;;;22.20;99.90;;;;;;5030063;28;20186;-82
2022/11/13 09:34:13;;;;;;;2.65;2.45;;;22.10;99.90;;;;;;5030591;28;20282;-81
2022/11/13 09:36:44;;;;;;;2.67;2.30;;;22.10;99.90;;;;;;5030977;28;20233;-81
2022/11/13 09:39:18;;;;;;;3.30;2.20;;;22.10;99.90;;;;;;5032244;28;20226;-82
2022/11/13 09:41:56;;;;;;;3.03;2.15;;;22.10;99.90;;;;;;5034129;28;20201;-82
2022/11/13 09:44:35;;;;;;;1.98;1.80;;;22.00;99.90;;;;;;5027247;28;20221;-82
2022/11/13 09:47:10;;;;;;;3.10;1.90;;;22.10;99.90;;;;;;5029844;28;20198;-83
2022/11/13 09:49:45;;;;;;;3.72;1.92;;;22.10;99.90;;;;;;5028893;28;20194;-83
2022/11/13 09:52:18;;;;;;;2.88;1.90;;;22.00;99.90;;;;;;5032599;28;20556;-82
2022/11/13 09:54:49;;;;;;;3.00;2.03;;;22.00;99.90;;;;;;5031350;28;20248;-80
2022/11/13 09:57:29;;;;;;;2.65;2.10;;;22.00;99.90;;;;;;5031296;28;20194;-83
2022/11/13 10:00:06;;;;;;;2.90;2.15;;;22.00;99.90;;;;;;5030980;28;20198;-82
2022/11/13 10:02:45;;;;;;;2.88;1.98;;;22.00;99.90;;;;;;5026504;28;20198;-84
2022/11/13 10:05:22;;;;;;;2.28;2.08;;;21.90;99.90;;;;;;5030899;28;20214;-90
2022/11/13 10:07:59;;;;;;;3.30;1.88;;;21.90;99.90;;;;;;5028139;28;20197;-83
2022/11/13 10:10:46;;;;;;;2.40;2.20;;;21.80;99.90;;;;;;5032334;28;20205;-83
2022/11/13 10:13:21;;;;;;;2.10;2.00;;;21.80;99.90;;;;;;5030385;28;20281;-86
2022/11/13 10:15:58;;;;;;;3.10;2.03;;;21.80;99.90;;;;;;5028724;28;20201;-90
2022/11/13 10:18:33;;;;;;;4.00;2.40;;;21.70;99.90;;;;;;5032185;28;20276;-91
2022/11/13 10:21:13;;;;;;;4.03;2.50;;;21.70;99.90;;;;;;5031863;28;20208;-83
2022/11/13 10:23:49;;;;;;;3.47;2.22;;;21.60;99.90;;;;;;5026854;28;20197;-88
2022/11/13 10:26:21;;;;;;;4.93;2.40;;;21.60;99.90;;;;;;5028432;28;20253;-86
2022/11/13 10:29:02;;;;;;;4.20;2.90;;;21.50;99.90;;;;;;5030658;28;20190;-86
2022/11/13 10:31:45;;;;;;;4.95;2.70;;;21.50;99.90;;;;;;5030294;28;20194;-84
2022/11/13 10:34:19;;;;;;;4.32;2.80;;;21.50;99.90;;;;;;5031030;28;20187;-82
2022/11/13 10:37:07;;;;;;;3.83;3.25;;;21.50;99.90;;;;;;5029701;28;20241;-82
2022/11/13 10:39:44;;;;;;;3.30;3.00;;;21.50;99.90;;;;;;5028884;28;20650;-81
2022/11/13 10:42:24;;;;;;;5.25;3.25;;;21.50;99.90;;;;;;5029654;28;20654;-81
2022/11/13 10:45:00;;;;;;;4.80;3.20;;;21.50;99.90;;;;;;5029675;28;20217;-82
2022/11/13 10:47:34;;;;;;;4.38;3.22;;;21.50;99.90;;;;;;5029367;28;20283;-82
2022/11/13 10:50:13;;;;;;;3.75;3.20;;;21.50;99.90;;;;;;5029951;28;20280;-81
2022/11/13 10:52:49;;;;;;;3.92;3.13;;;21.50;99.90;;;;;;5031896;28;20687;-81
2022/11/13 10:55:26;;;;;;;3.70;3.40;;;21.50;99.90;;;;;;5030487;28;20202;-85
2022/11/13 10:58:04;;;;;;;4.97;3.10;;;21.50;99.90;;;;;;5030944;28;20237;-82
2022/11/13 11:00:39;;;;;;;3.90;3.28;;;21.50;99.90;;;;;;5022959;28;20221;-83
2022/11/13 11:03:17;;;;;;;3.28;2.95;;;21.50;99.90;;;;;;5026633;28;20281;-81
2022/11/13 11:06:05;;;;;;;4.43;3.25;;;21.50;99.90;;;;;;5028470;28;20709;-82
2022/11/13 11:08:38;;;;;;;4.70;3.30;;;21.50;99.90;;;;;;5030671;28;20194;-81
2022/11/13 11:14:23;;;;;;;4.13;3.00;;;21.50;99.90;;;;;;5029922;28;21584;-84
2022/11/13 11:16:55;;;;;;;4.72;3.13;;;21.40;99.90;;;;;;5026478;28;20213;-83
2022/11/13 11:19:32;;;;;;;4.57;3.15;;;21.50;99.90;;;;;;5029704;28;20288;-81
2022/11/13 11:22:09;;;;;;;4.60;3.22;;;21.40;99.90;;;;;;5029510;28;20225;-84
2022/11/13 11:24:44;;;;;;;4.47;3.40;;;21.40;99.90;;;;;;5029010;28;20602;-82
2022/11/13 11:27:21;;;;;;;4.95;3.50;;;21.40;99.90;;;;;;5028389;28;20200;-82
2022/11/13 11:30:01;;;;;;;4.10;3.38;;;21.40;99.90;;;;;;5027834;28;20233;-82
2022/11/13 11:32:38;;;;;;;3.80;3.50;;;21.40;99.90;;;;;;5021825;28;20216;-80
2022/11/13 11:35:17;;;;;;;7.07;3.72;;;21.40;99.90;;;;;;5030763;28;20217;-80
2022/11/13 11:37:55;;;;;;;3.72;3.35;;;21.40;99.90;;;;;;5027954;28;20237;-81
2022/11/13 11:40:32;;;;;;;5.32;3.72;;;21.40;99.90;;;;;;5027652;28;20194;-81
2022/11/13 11:43:11;;;;;;;3.78;3.35;;;21.40;99.90;;;;;;5025786;28;20226;-83
2022/11/13 11:48:35;;;;;;;3.85;3.28;;;21.40;99.90;;;;;;5027363;28;20209;-82
2022/11/13 11:51:15;;;;;;;4.75;3.55;;;21.40;99.90;;;;;;5028634;28;20293;-82
2022/11/13 11:53:57;;;;;;;5.43;3.47;;;21.40;99.90;;;;;;5029389;28;20213;-81
2022/11/13 11:56:35;;;;;;;6.32;3.85;;;21.40;99.90;;;;;;5030494;28;20218;-81
2022/11/13 11:59:42;;;;;;;3.90;3.40;;;21.40;99.90;;;;;;5029393;28;20220;-83
2022/11/13 12:02:43;;;;;;;5.55;3.70;;;21.40;99.90;;;;;;5024554;28;20195;-81
2022/11/13 12:05:25;;;;;;;7.35;3.50;;;21.40;99.90;;;;;;5026835;28;20221;-83
2022/11/13 12:08:06;;;;;;;4.57;3.97;;;21.30;99.90;;;;;;5027672;28;20198;-83
2022/11/13 12:10:51;;;;;;;3.97;3.58;;;21.30;99.90;;;;;;5029875;28;20201;-82
2022/11/13 12:13:30;;;;;;;4.40;4.00;;;21.30;99.90;;;;;;5023874;28;20256;-81
2022/11/13 12:16:07;;;;;;;4.40;3.95;;;21.30;99.90;;;;;;5026256;28;20202;-82
2022/11/13 12:18:48;;;;;;;5.00;4.18;;;21.30;99.90;;;;;;5028899;28;20194;-83
2022/11/13 12:21:26;;;;;;;4.82;3.97;;;21.30;99.90;;;;;;5024286;28;20211;-82
2022/11/13 12:24:28;;;;;;;6.35;4.13;;;21.30;99.90;;;;;;5028101;28;20654;-86
2022/11/13 12:27:12;;;;;;;4.20;3.90;;;21.20;99.90;;;;;;5026452;28;20693;-81
2022/11/13 12:29:56;;;;;;;4.90;4.18;;;21.20;99.90;;;;;;5025142;28;20661;-82
2022/11/13 12:32:41;;;;;;;5.15;4.28;;;21.20;99.90;;;;;;5021073;28;20201;-83
2022/11/13 12:35:16;;;;;;;4.53;4.13;;;21.20;99.90;;;;;;5026258;28;20690;-83
2022/11/13 12:37:53;;;;;;;7.90;4.30;;;21.20;99.90;;;;;;5029900;28;20697;-82
2022/11/13 12:40:32;;;;;;;4.20;3.80;;;21.20;99.90;;;;;;5028889;28;20200;-82
2022/11/13 12:43:19;;;;;;;5.65;4.28;;;21.20;99.90;;;;;;5022099;28;20198;-83
2022/11/13 12:45:53;;;;;;;4.57;3.70;;;21.20;99.90;;;;;;5027609;28;21901;-83
2022/11/13 12:48:29;;;;;;;4.25;3.58;;;21.20;99.90;;;;;;5024986;28;20293;-81
2022/11/13 12:51:02;;;;;;;3.97;3.55;;;21.20;99.90;;;;;;5029707;28;20197;-83
2022/11/13 12:53:44;;;;;;;5.10;3.47;;;21.20;99.90;;;;;;5030949;28;20255;-83
2022/11/13 12:56:32;;;;;;;4.80;3.47;;;21.10;99.90;;;;;;5032407;28;20701;-86
2022/11/13 12:59:05;;;;;;;4.85;3.47;;;21.20;99.90;;;;;;5029712;28;20205;-87
2022/11/13 13:01:43;;;;;;;5.93;3.28;;;21.20;99.90;;;;;;5034164;28;20200;-85
2022/11/13 13:04:42;;;;;;;4.07;3.67;;;21.10;99.90;;;;;;5027964;28;20289;-85
2022/11/13 13:07:26;;;;;;;4.15;3.65;;;21.10;99.90;;;;;;5034296;28;20214;-84
2022/11/13 13:10:06;;;;;;;4.72;3.53;;;21.10;99.90;;;;;;5031245;28;20194;-84
2022/11/13 13:12:50;;;;;;;5.25;3.60;;;21.10;99.90;;;;;;5020688;28;20202;-88
2022/11/13 13:15:37;;;;;;;6.07;3.85;;;21.00;99.90;;;;;;5032977;28;20213;-82
2022/11/13 13:18:12;;;;;;;3.95;3.53;;;21.00;99.90;;;;;;5032269;28;20201;-86
2022/11/13 13:20:47;;;;;;;4.85;3.00;;;21.00;99.90;;;;;;5031864;28;20578;-85
2022/11/13 13:23:29;;;;;;;4.30;3.90;;;21.00;99.90;;;;;;5032651;28;20654;-85